Terminal Aerodrome Forecast
Issued by NWS

Home | Current Version | Previous Version | Text Only | Print | Product List | Glossary On
Versions: 1 2 3 4 5 6 7 8 9 10 11 12 13 14 15 16 17 18 19 20
000
FTAK31 PANC 241725
TAFAGK
TAF
PAGK 241725Z 2418/2518 19010KT P6SM -RA SCT005 OVC060
      TEMPO 2418/2422 19011G18KT
     FM242200 16013G20KT P6SM -SHRA BKN025 OVC070
     FM250800 15008KT P6SM -SHRA BKN050 BKN100=

USA.gov is the U.S. government's official web portal to all federal, state and local government web resources and services.